Aérodrome :
LOGIN :

S'inscrire | Disclaimer

   EN    FR    IT 

 










Légende :    VFR   VFR Marginal   IFR   IFR Intensif   IFR Très Intensif
Visi : 
Plafond : 
>= 8 km
>= 3000ft
5 à 8 km
1000 à 3000 ft
1500m à 5 km
500 à 1000 ft
800 à 1500m
200 à 500 ft
< 800m
< 200 ft
Symboles :   Orages  Brouillard  Fortes neiges  Fortes précipitations  Vent > 20 kt
SIGMETs :   Divers  Orages  Givrage  Turbulence  Onde Orograph.  Cendres Volcan.






- Altitude de l'aérodrome : 1090 ft
- Code IATA : CFE


LFLC - Clermont-Ferrand Auvergne

DERNIER METAR :
  • 220600Z AUTO 18016KT 9999 BKN058 BKN070 BKN180 08/04 Q0995 TEMPO 4000 RA

METARs EXPIRÉS :
  • 220530Z AUTO 18014KT 9999 FEW054 07/03 Q0995 TEMPO 4000 RA
  • 220500Z AUTO 18017KT 9999 FEW050 BKN072 08/03 Q0996 NOSIG
  • 220430Z AUTO 17015KT 9999 FEW052 SCT110 07/03 Q0997 NOSIG
  • 220400Z AUTO 18011KT 9999 FEW058 SCT072 08/03 Q0997 NOSIG
  • 220330Z AUTO 19012KT CAVOK 08/04 Q0998 NOSIG

TAF TAF LFLC
Valide du 22 à 06h jusqu'au 23 à 06h UTC


220500Z 2206/2306 18012KT CAVOK
TEMPO 2207/2212 4000 RA BKN050
BECMG 2212/2215 31012KT BKN040
TEMPO 2214/2218 31020G30KT RA
BECMG 2300/2303 20009KT
ATIS : +33 4 73 62 74 38



MET'MAP, la Météo Aéronautique d'un coup d'oeil ! - Copyright ORBIFLY Décembre 2007 - Disclaimer

ORBIFLY MET'MAP TEAM :

Programmation & Développement : Alexandra Zaïnal
Sur une idée originale de : Baudouin d'Aumeries
Assistance à la programmation : Marc-Olivier Méhu
Soutien technique & logistique : Manuel Goepfert

Contact : metmap@orbifly.com




SOURCES & CREDITS :

   NOAA